Time;durP1;ratioP1;P1;durP2;ratioP2;P2;SDS_P1;SDS_P2;PMS_P1;PMS_P2;Temp;Humidity;BMP_temperature;BMP_pressure;BME280_temperature;BME280_humidity;BME280_pressure;Samples;Min_cycle;Max_cycle;Signal;HPM_P1;HPM_P2
2023/11/14 00:00:52;;;;;;;5.30;4.10;;;;;;;;;;2073671;28;20030;-80
2023/11/14 00:02:11;;;;;;;4.68;4.30;;;;;;;;;;2077533;28;20026;-79
2023/11/14 00:03:30;;;;;;;4.43;3.97;;;;;;;;;;2077543;28;20029;-79
2023/11/14 00:04:50;;;;;;;4.40;4.00;;;;;;;;;;2078535;28;20030;-79
2023/11/14 00:06:09;;;;;;;4.72;4.32;;;;;;;;;;2078837;28;20526;-79
2023/11/14 00:07:28;;;;;;;4.80;4.22;;;;;;;;;;2078229;28;20029;-79
2023/11/14 00:08:47;;;;;;;5.38;4.18;;;;;;;;;;2078088;28;20026;-80
2023/11/14 00:10:07;;;;;;;4.50;4.05;;;;;;;;;;2076418;28;20026;-79
2023/11/14 00:11:31;;;;;;;4.72;4.22;;;;;;;;;;2075270;28;20483;-80
2023/11/14 00:12:50;;;;;;;5.03;4.32;;;;;;;;;;2077930;28;20060;-79
2023/11/14 00:14:10;;;;;;;4.53;4.13;;;;;;;;;;2077126;28;20414;-79
2023/11/14 00:15:31;;;;;;;4.22;3.85;;;;;;;;;;2077728;28;20148;-79
2023/11/14 00:16:50;;;;;;;4.72;4.25;;;;;;;;;;2081081;28;20140;-79
2023/11/14 00:18:09;;;;;;;4.82;3.85;;;;;;;;;;2080664;28;20448;-79
2023/11/14 00:19:28;;;;;;;4.55;4.15;;;;;;;;;;2075234;28;20029;-79
2023/11/14 00:20:48;;;;;;;6.07;4.00;;;;;;;;;;2078027;28;20041;-79
2023/11/14 00:22:07;;;;;;;8.70;4.57;;;;;;;;;;2076597;28;20123;-79
2023/11/14 00:23:26;;;;;;;4.50;4.10;;;;;;;;;;2078849;28;20021;-80
2023/11/14 00:24:48;;;;;;;4.65;4.25;;;;;;;;;;2080899;28;20065;-80
2023/11/14 00:26:08;;;;;;;6.28;4.30;;;;;;;;;;2075240;28;20057;-79
2023/11/14 00:27:27;;;;;;;5.13;4.22;;;;;;;;;;2075080;28;20038;-78
2023/11/14 00:28:48;;;;;;;4.93;4.03;;;;;;;;;;2078880;28;20034;-79
2023/11/14 00:30:07;;;;;;;6.13;4.15;;;;;;;;;;2079765;28;20026;-79
2023/11/14 00:31:28;;;;;;;6.53;4.30;;;;;;;;;;2076987;28;20025;-79
2023/11/14 00:32:47;;;;;;;5.43;4.50;;;;;;;;;;2078391;28;20029;-79
2023/11/14 00:34:06;;;;;;;5.05;4.57;;;;;;;;;;2077834;28;20516;-79
2023/11/14 00:35:25;;;;;;;4.55;4.15;;;;;;;;;;2076651;28;20037;-79
2023/11/14 00:36:45;;;;;;;4.10;3.70;;;;;;;;;;2079150;28;20017;-78
2023/11/14 00:38:04;;;;;;;4.70;4.30;;;;;;;;;;2074768;28;20061;-79
2023/11/14 00:39:23;;;;;;;7.22;4.57;;;;;;;;;;2077837;28;20030;-79
2023/11/14 00:40:43;;;;;;;5.38;4.15;;;;;;;;;;2078133;28;20566;-79
2023/11/14 00:42:03;;;;;;;4.85;4.22;;;;;;;;;;2078796;28;20395;-78
2023/11/14 00:43:22;;;;;;;3.85;3.55;;;;;;;;;;2073886;28;20033;-79
2023/11/14 00:44:47;;;;;;;5.45;4.10;;;;;;;;;;2072578;28;20600;-80
2023/11/14 00:46:09;;;;;;;4.47;3.83;;;;;;;;;;2078234;28;20029;-79
2023/11/14 00:47:28;;;;;;;3.83;3.53;;;;;;;;;;2079778;28;20030;-78
2023/11/14 00:48:48;;;;;;;3.58;3.28;;;;;;;;;;2078627;28;20486;-79
2023/11/14 00:50:07;;;;;;;4.78;3.95;;;;;;;;;;2079252;28;20120;-80
2023/11/14 00:51:26;;;;;;;3.78;3.42;;;;;;;;;;2076478;28;20030;-79
2023/11/14 00:52:46;;;;;;;5.03;3.47;;;;;;;;;;2076240;28;20045;-78
2023/11/14 00:54:05;;;;;;;4.65;3.45;;;;;;;;;;2076254;28;20025;-79
2023/11/14 00:55:27;;;;;;;3.90;3.60;;;;;;;;;;2076568;28;20038;-79
2023/11/14 00:56:46;;;;;;;5.47;3.95;;;;;;;;;;2077176;28;20037;-79
2023/11/14 00:58:05;;;;;;;3.60;3.30;;;;;;;;;;2079612;28;20115;-78
2023/11/14 00:59:24;;;;;;;6.82;3.35;;;;;;;;;;2074492;28;20022;-79
2023/11/14 01:00:43;;;;;;;4.00;3.70;;;;;;;;;;2079620;28;20025;-79
2023/11/14 01:02:03;;;;;;;4.30;3.92;;;;;;;;;;2079481;28;20030;-79
2023/11/14 01:03:24;;;;;;;4.18;3.63;;;;;;;;;;2079562;28;20072;-79
2023/11/14 01:04:43;;;;;;;5.13;3.35;;;;;;;;;;2079013;28;20034;-77
2023/11/14 01:06:04;;;;;;;3.70;3.40;;;;;;;;;;2079407;28;20026;-79
2023/11/14 01:07:23;;;;;;;4.65;3.75;;;;;;;;;;2075669;28;20414;-79
2023/11/14 01:08:43;;;;;;;3.65;3.33;;;;;;;;;;2079492;28;20029;-79
2023/11/14 01:10:03;;;;;;;5.03;3.13;;;;;;;;;;2078278;28;20064;-79
2023/11/14 01:11:23;;;;;;;2.88;2.67;;;;;;;;;;2078696;28;20514;-79
2023/11/14 01:12:42;;;;;;;3.85;3.42;;;;;;;;;;2076949;28;20030;-81
2023/11/14 01:14:00;;;;;;;3.78;3.47;;;;;;;;;;2080037;28;20033;-79
2023/11/14 01:15:19;;;;;;;3.75;3.45;;;;;;;;;;2076220;28;20041;-79
2023/11/14 01:16:38;;;;;;;3.75;3.45;;;;;;;;;;2079247;28;20038;-79
2023/11/14 01:17:57;;;;;;;3.65;3.33;;;;;;;;;;2079609;28;20037;-79
2023/11/14 01:19:16;;;;;;;4.07;3.63;;;;;;;;;;2078255;28;20038;-79
2023/11/14 01:20:35;;;;;;;4.35;2.85;;;;;;;;;;2077477;28;20061;-79
2023/11/14 01:21:54;;;;;;;3.58;3.28;;;;;;;;;;2078799;28;20029;-79
2023/11/14 01:23:16;;;;;;;3.30;2.95;;;;;;;;;;2079856;28;20034;-79
2023/11/14 01:24:35;;;;;;;3.83;3.53;;;;;;;;;;2078604;28;20132;-79
2023/11/14 01:25:54;;;;;;;4.82;3.42;;;;;;;;;;2078291;28;20017;-78
2023/11/14 01:27:14;;;;;;;4.00;3.55;;;;;;;;;;2079797;28;20018;-79
2023/11/14 01:28:33;;;;;;;3.88;3.58;;;;;;;;;;2078354;28;20026;-79
2023/11/14 01:29:52;;;;;;;5.45;3.40;;;;;;;;;;2077906;28;20030;-79
2023/11/14 01:31:21;;;;;;;3.90;3.60;;;;;;;;;;2074420;28;20029;-79
2023/11/14 01:32:40;;;;;;;4.80;3.78;;;;;;;;;;2079423;28;20026;-79
2023/11/14 01:33:59;;;;;;;3.88;3.58;;;;;;;;;;2077690;28;20026;-78
2023/11/14 01:35:18;;;;;;;5.18;3.55;;;;;;;;;;2078797;28;20042;-79
2023/11/14 01:36:38;;;;;;;4.65;3.03;;;;;;;;;;2078762;28;20041;-78
2023/11/14 01:37:57;;;;;;;3.58;3.20;;;;;;;;;;2078668;28;20498;-78
2023/11/14 01:39:16;;;;;;;3.20;2.97;;;;;;;;;;2077860;28;20037;-79
2023/11/14 01:40:35;;;;;;;4.63;3.60;;;;;;;;;;2080545;28;20061;-79
2023/11/14 01:41:54;;;;;;;4.82;3.28;;;;;;;;;;2077615;28;20052;-78
2023/11/14 01:43:13;;;;;;;3.20;2.90;;;;;;;;;;2072500;28;20033;-79
2023/11/14 01:44:31;;;;;;;3.65;3.30;;;;;;;;;;2076517;28;20038;-79
2023/11/14 01:45:51;;;;;;;3.50;3.20;;;;;;;;;;2081173;28;20042;-80
2023/11/14 01:47:10;;;;;;;3.47;3.20;;;;;;;;;;2080034;28;20025;-79
2023/11/14 01:48:30;;;;;;;3.88;3.55;;;;;;;;;;2079859;28;20026;-79
2023/11/14 01:49:49;;;;;;;4.35;3.70;;;;;;;;;;2079057;28;20029;-79
2023/11/14 01:51:07;;;;;;;4.18;3.25;;;;;;;;;;2078428;28;20033;-79
2023/11/14 01:52:27;;;;;;;3.63;3.17;;;;;;;;;;2078315;28;20030;-79
2023/11/14 01:53:48;;;;;;;3.10;2.90;;;;;;;;;;2077581;28;20041;-80
2023/11/14 01:55:07;;;;;;;4.10;3.08;;;;;;;;;;2077409;28;20034;-79
2023/11/14 01:56:28;;;;;;;2.88;2.67;;;;;;;;;;2079341;28;20462;-79
2023/11/14 01:57:47;;;;;;;2.92;2.63;;;;;;;;;;2078076;28;20029;-79
2023/11/14 01:59:06;;;;;;;2.97;2.78;;;;;;;;;;2078560;28;20030;-79
2023/11/14 02:00:25;;;;;;;4.22;3.05;;;;;;;;;;2077992;28;20034;-80
2023/11/14 02:01:45;;;;;;;3.55;2.53;;;;;;;;;;2080767;28;21020;-78
2023/11/14 02:03:04;;;;;;;3.35;3.08;;;;;;;;;;2074402;28;20026;-80
2023/11/14 02:04:25;;;;;;;4.30;3.20;;;;;;;;;;2075502;28;20022;-80
2023/11/14 02:05:44;;;;;;;3.53;3.22;;;;;;;;;;2072861;28;20104;-79
2023/11/14 02:07:03;;;;;;;4.63;2.85;;;;;;;;;;2076227;28;20026;-79
2023/11/14 02:08:22;;;;;;;3.88;3.47;;;;;;;;;;2074968;28;20021;-78
2023/11/14 02:09:41;;;;;;;3.42;3.10;;;;;;;;;;2075966;28;20033;-80
2023/11/14 02:11:00;;;;;;;3.20;2.90;;;;;;;;;;2078364;28;20029;-78
2023/11/14 02:12:19;;;;;;;3.50;2.97;;;;;;;;;;2080624;28;20470;-79
2023/11/14 02:13:43;;;;;;;2.80;2.60;;;;;;;;;;2075242;28;20048;-79
2023/11/14 02:15:05;;;;;;;4.53;3.30;;;;;;;;;;2074096;28;20026;-79
2023/11/14 02:16:26;;;;;;;3.45;3.15;;;;;;;;;;2081915;28;20409;-79
2023/11/14 02:17:45;;;;;;;3.20;2.88;;;;;;;;;;2079454;28;20510;-79
2023/11/14 02:19:04;;;;;;;3.55;3.25;;;;;;;;;;2078130;28;20034;-79
2023/11/14 02:20:23;;;;;;;4.85;3.22;;;;;;;;;;2077618;28;20498;-79
2023/11/14 02:21:42;;;;;;;4.68;3.25;;;;;;;;;;2077165;28;20121;-79
2023/11/14 02:23:02;;;;;;;3.45;3.20;;;;;;;;;;2078855;28;20026;-79
2023/11/14 02:24:23;;;;;;;3.50;3.20;;;;;;;;;;2078235;28;20037;-79
2023/11/14 02:25:42;;;;;;;3.90;3.60;;;;;;;;;;2077657;28;20061;-79
2023/11/14 02:27:01;;;;;;;3.35;3.15;;;;;;;;;;2077023;28;20506;-79
2023/11/14 02:28:23;;;;;;;3.88;3.58;;;;;;;;;;2083440;28;20076;-80
2023/11/14 02:29:42;;;;;;;4.07;3.40;;;;;;;;;;2087918;28;20037;-80
2023/11/14 02:31:01;;;;;;;3.55;3.25;;;;;;;;;;2087960;28;20021;-79
2023/11/14 02:32:20;;;;;;;4.07;3.67;;;;;;;;;;2088126;28;20041;-80
2023/11/14 02:33:40;;;;;;;4.65;4.18;;;;;;;;;;2084558;28;20033;-79
2023/11/14 02:34:59;;;;;;;4.72;4.32;;;;;;;;;;2077772;28;20048;-79
2023/11/14 02:36:19;;;;;;;4.68;4.28;;;;;;;;;;2082504;28;20089;-78
2023/11/14 02:37:37;;;;;;;3.88;3.58;;;;;;;;;;2081646;28;20057;-79
2023/11/14 02:38:56;;;;;;;4.85;4.45;;;;;;;;;;2081305;28;20029;-79
2023/11/14 02:40:16;;;;;;;4.65;4.22;;;;;;;;;;2080440;28;20037;-79
2023/11/14 02:41:38;;;;;;;4.90;4.05;;;;;;;;;;2080655;28;21384;-79
2023/11/14 02:42:58;;;;;;;4.47;4.10;;;;;;;;;;2076699;28;20017;-79
2023/11/14 02:44:17;;;;;;;4.15;3.83;;;;;;;;;;2072281;28;20528;-80
2023/11/14 02:45:35;;;;;;;4.72;4.35;;;;;;;;;;2076454;28;20075;-79
2023/11/14 02:46:54;;;;;;;4.78;4.38;;;;;;;;;;2075466;28;20029;-79
2023/11/14 02:48:14;;;;;;;4.63;4.22;;;;;;;;;;2079724;28;20026;-80
2023/11/14 02:49:51;;;;;;;5.28;4.30;;;;;;;;;;2075100;28;20518;-79
2023/11/14 02:51:10;;;;;;;6.32;4.53;;;;;;;;;;2077893;28;20481;-79
2023/11/14 02:52:30;;;;;;;5.32;4.53;;;;;;;;;;2076823;28;20029;-80
2023/11/14 02:53:49;;;;;;;7.25;5.07;;;;;;;;;;2077294;28;20683;-80
2023/11/14 02:55:09;;;;;;;6.57;4.72;;;;;;;;;;2078399;28;20049;-80
2023/11/14 02:56:27;;;;;;;7.10;4.97;;;;;;;;;;2078217;28;20033;-79
2023/11/14 02:57:46;;;;;;;6.20;5.25;;;;;;;;;;2078733;28;20029;-80
2023/11/14 02:59:06;;;;;;;6.38;5.15;;;;;;;;;;2074700;28;20025;-80
2023/11/14 03:00:25;;;;;;;10.20;5.65;;;;;;;;;;2073533;28;20050;-79
2023/11/14 03:01:43;;;;;;;9.65;6.38;;;;;;;;;;2074215;28;20038;-80
2023/11/14 03:03:02;;;;;;;7.07;5.45;;;;;;;;;;2078792;28;20026;-79
2023/11/14 03:04:23;;;;;;;8.20;6.50;;;;;;;;;;2077295;28;20029;-79
2023/11/14 03:05:42;;;;;;;6.75;5.30;;;;;;;;;;2072657;28;20052;-80
2023/11/14 03:07:02;;;;;;;6.30;5.70;;;;;;;;;;2073685;28;20025;-80
2023/11/14 03:08:21;;;;;;;6.70;6.10;;;;;;;;;;2074811;28;20042;-80
2023/11/14 03:09:40;;;;;;;7.50;6.35;;;;;;;;;;2074286;28;20037;-79
2023/11/14 03:11:01;;;;;;;7.50;6.35;;;;;;;;;;2076409;28;20033;-79
2023/11/14 03:12:20;;;;;;;9.20;6.03;;;;;;;;;;2069482;28;20037;-80
2023/11/14 03:13:39;;;;;;;8.10;6.43;;;;;;;;;;2075441;28;20899;-80
2023/11/14 03:14:58;;;;;;;7.80;6.55;;;;;;;;;;2074340;28;20030;-80
2023/11/14 03:16:17;;;;;;;10.25;6.50;;;;;;;;;;2074086;28;20440;-80
2023/11/14 03:17:36;;;;;;;8.75;6.70;;;;;;;;;;2078763;28;20101;-80
2023/11/14 03:18:55;;;;;;;7.95;6.85;;;;;;;;;;2078060;28;20041;-79
2023/11/14 03:20:14;;;;;;;10.65;7.18;;;;;;;;;;2075478;28;20030;-79
2023/11/14 03:21:33;;;;;;;10.10;6.80;;;;;;;;;;2073873;28;20021;-79
2023/11/14 03:22:52;;;;;;;7.65;6.90;;;;;;;;;;2075495;28;20025;-79
2023/11/14 03:24:11;;;;;;;9.73;6.85;;;;;;;;;;2073267;28;20047;-80
2023/11/14 03:25:30;;;;;;;12.10;7.22;;;;;;;;;;2078213;28;20026;-78
2023/11/14 03:26:49;;;;;;;8.00;7.20;;;;;;;;;;2076416;28;20026;-79
2023/11/14 03:28:08;;;;;;;12.48;8.15;;;;;;;;;;2078088;28;20108;-79
2023/11/14 03:29:27;;;;;;;12.55;8.07;;;;;;;;;;2074068;28;20026;-79
2023/11/14 03:30:46;;;;;;;10.57;7.70;;;;;;;;;;2075864;28;20030;-79
2023/11/14 03:32:05;;;;;;;10.70;7.93;;;;;;;;;;2074138;28;20045;-80
2023/11/14 03:33:24;;;;;;;12.20;7.78;;;;;;;;;;2075894;28;20029;-81
2023/11/14 03:34:43;;;;;;;10.57;8.02;;;;;;;;;;2074350;28;20026;-80
2023/11/14 03:36:02;;;;;;;10.88;8.00;;;;;;;;;;2078457;28;20021;-79
2023/11/14 03:37:21;;;;;;;12.30;8.35;;;;;;;;;;2076896;28;20030;-80
2023/11/14 03:38:43;;;;;;;14.38;8.55;;;;;;;;;;2077012;28;20045;-79
2023/11/14 03:40:03;;;;;;;11.38;8.32;;;;;;;;;;2073961;28;20029;-79
2023/11/14 03:41:22;;;;;;;13.27;8.52;;;;;;;;;;2077027;28;20451;-80
2023/11/14 03:42:41;;;;;;;14.07;8.60;;;;;;;;;;2074233;28;20068;-80
2023/11/14 03:44:01;;;;;;;13.63;9.23;;;;;;;;;;2077981;28;20049;-80
2023/11/14 03:45:20;;;;;;;13.38;9.25;;;;;;;;;;2078973;28;20033;-79
2023/11/14 03:46:39;;;;;;;14.00;8.88;;;;;;;;;;2073072;28;20030;-80
2023/11/14 03:47:58;;;;;;;17.55;8.57;;;;;;;;;;2075045;28;20057;-79
2023/11/14 03:49:17;;;;;;;13.38;9.15;;;;;;;;;;2072986;28;20025;-79
2023/11/14 03:50:37;;;;;;;12.82;9.10;;;;;;;;;;2078217;28;20026;-79
2023/11/14 03:51:56;;;;;;;12.27;8.52;;;;;;;;;;2079509;28;20108;-79
2023/11/14 03:53:16;;;;;;;16.13;8.85;;;;;;;;;;2078850;28;20089;-80
2023/11/14 03:54:37;;;;;;;12.27;8.30;;;;;;;;;;2081423;28;20025;-81
2023/11/14 03:55:56;;;;;;;15.27;8.80;;;;;;;;;;2080258;28;20112;-79
2023/11/14 03:57:15;;;;;;;11.63;8.35;;;;;;;;;;2079588;28;20033;-79
2023/11/14 03:58:34;;;;;;;13.93;9.32;;;;;;;;;;2079360;28;20025;-79
2023/11/14 03:59:53;;;;;;;11.82;7.35;;;;;;;;;;2079814;28;20037;-79
2023/11/14 04:01:11;;;;;;;13.05;8.52;;;;;;;;;;2078069;28;20057;-79
2023/11/14 04:02:30;;;;;;;11.50;8.82;;;;;;;;;;2078159;28;20033;-79
2023/11/14 04:03:49;;;;;;;11.40;8.77;;;;;;;;;;2079041;28;20425;-79
2023/11/14 04:05:08;;;;;;;16.27;9.00;;;;;;;;;;2079315;28;20475;-80
2023/11/14 04:06:28;;;;;;;12.85;8.52;;;;;;;;;;2079383;28;20089;-79
2023/11/14 04:07:47;;;;;;;12.98;8.05;;;;;;;;;;2077975;28;20138;-79
2023/11/14 04:09:06;;;;;;;13.30;8.90;;;;;;;;;;2076718;28;20104;-79
2023/11/14 04:10:25;;;;;;;13.70;8.20;;;;;;;;;;2077084;28;20026;-79
2023/11/14 04:11:44;;;;;;;12.25;7.72;;;;;;;;;;2078619;28;20038;-79
2023/11/14 04:13:03;;;;;;;17.40;8.25;;;;;;;;;;2078858;28;20034;-79
2023/11/14 04:14:24;;;;;;;9.32;7.47;;;;;;;;;;2081145;28;20410;-80
2023/11/14 04:15:43;;;;;;;13.27;7.47;;;;;;;;;;2076712;28;20025;-79
2023/11/14 04:17:03;;;;;;;11.05;7.78;;;;;;;;;;2078454;28;20156;-79
2023/11/14 04:18:22;;;;;;;10.00;7.28;;;;;;;;;;2078565;28;20072;-79
2023/11/14 04:19:41;;;;;;;14.65;7.90;;;;;;;;;;2075400;28;20050;-79
2023/11/14 04:21:02;;;;;;;16.58;8.13;;;;;;;;;;2077283;28;20026;-79
2023/11/14 04:22:21;;;;;;;13.60;8.45;;;;;;;;;;2077823;28;20025;-79
2023/11/14 04:23:40;;;;;;;13.13;7.72;;;;;;;;;;2077388;28;20761;-80
2023/11/14 04:24:59;;;;;;;9.77;7.18;;;;;;;;;;2078714;28;20136;-80
2023/11/14 04:26:18;;;;;;;11.23;7.18;;;;;;;;;;2080736;28;20021;-79
2023/11/14 04:27:37;;;;;;;8.05;7.22;;;;;;;;;;2076853;28;20029;-78
2023/11/14 04:28:56;;;;;;;8.90;6.38;;;;;;;;;;2074864;28;20041;-80
2023/11/14 04:30:16;;;;;;;7.72;6.15;;;;;;;;;;2076969;28;20381;-79
2023/11/14 04:31:35;;;;;;;6.40;5.80;;;;;;;;;;2079430;28;20030;-80
2023/11/14 04:32:54;;;;;;;5.88;5.28;;;;;;;;;;2078815;28;20616;-78
2023/11/14 04:34:13;;;;;;;10.63;5.20;;;;;;;;;;2079286;28;20037;-79
2023/11/14 04:35:32;;;;;;;7.50;5.40;;;;;;;;;;2079589;28;20435;-79
2023/11/14 04:36:51;;;;;;;9.23;5.45;;;;;;;;;;2078427;28;20033;-78
2023/11/14 04:38:10;;;;;;;6.72;5.13;;;;;;;;;;2076030;28;20437;-79
2023/11/14 04:39:29;;;;;;;6.28;5.00;;;;;;;;;;2077012;28;20029;-79
2023/11/14 04:40:49;;;;;;;4.78;4.38;;;;;;;;;;2079106;28;20425;-79
2023/11/14 04:42:08;;;;;;;5.10;4.70;;;;;;;;;;2078325;28;20796;-79
2023/11/14 04:43:27;;;;;;;7.90;5.40;;;;;;;;;;2079072;28;20068;-80
2023/11/14 04:44:50;;;;;;;8.15;4.60;;;;;;;;;;2079275;28;20026;-79
2023/11/14 04:46:09;;;;;;;;;;;;;;;;;;2079533;28;20445;-79
2023/11/14 04:47:28;;;;;;;5.72;4.50;;;;;;;;;;2080667;28;19909;-78
2023/11/14 04:48:46;;;;;;;8.70;4.22;;;;;;;;;;2076890;28;20038;-79
2023/11/14 04:50:06;;;;;;;4.57;4.18;;;;;;;;;;2075060;28;20026;-79
2023/11/14 04:51:25;;;;;;;3.90;3.60;;;;;;;;;;2076862;28;20034;-80
2023/11/14 04:52:44;;;;;;;4.95;3.40;;;;;;;;;;2078340;28;20119;-79
2023/11/14 04:54:03;;;;;;;4.35;3.58;;;;;;;;;;2077881;28;20034;-79
2023/11/14 04:55:24;;;;;;;3.25;3.03;;;;;;;;;;2075083;28;20491;-79
2023/11/14 04:56:44;;;;;;;3.33;3.00;;;;;;;;;;2079739;28;20104;-78
2023/11/14 04:58:03;;;;;;;3.13;2.92;;;;;;;;;;2081455;28;20033;-79
2023/11/14 04:59:22;;;;;;;6.10;3.28;;;;;;;;;;2075067;28;20069;-79
2023/11/14 05:00:41;;;;;;;2.92;2.67;;;;;;;;;;2076672;28;20030;-79
2023/11/14 05:02:00;;;;;;;5.95;2.85;;;;;;;;;;2074700;28;20097;-79
2023/11/14 05:03:19;;;;;;;4.18;2.80;;;;;;;;;;2077331;28;20018;-80
2023/11/14 05:04:39;;;;;;;3.22;2.60;;;;;;;;;;2079703;28;20029;-78
2023/11/14 05:05:58;;;;;;;2.40;2.20;;;;;;;;;;2078600;28;20418;-77
2023/11/14 05:07:17;;;;;;;2.22;1.92;;;;;;;;;;2080074;28;20026;-78
2023/11/14 05:08:36;;;;;;;2.35;2.15;;;;;;;;;;2078832;28;20442;-79
2023/11/14 05:09:55;;;;;;;2.38;1.63;;;;;;;;;;2079160;28;20398;-78
2023/11/14 05:11:14;;;;;;;2.65;2.00;;;;;;;;;;2079124;28;20037;-79
2023/11/14 05:12:32;;;;;;;2.83;1.80;;;;;;;;;;2078241;28;20025;-79
2023/11/14 05:13:51;;;;;;;3.05;1.70;;;;;;;;;;2080411;28;20437;-78
2023/11/14 05:15:11;;;;;;;3.03;1.60;;;;;;;;;;2078782;28;20037;-79
2023/11/14 05:16:30;;;;;;;2.08;1.70;;;;;;;;;;2074768;28;20030;-79
2023/11/14 05:17:49;;;;;;;1.67;1.58;;;;;;;;;;2076710;28;20035;-78
2023/11/14 05:19:08;;;;;;;1.52;1.42;;;;;;;;;;2079280;28;20033;-79
2023/11/14 05:20:27;;;;;;;2.03;1.65;;;;;;;;;;2077630;28;20499;-79
2023/11/14 05:21:46;;;;;;;1.65;1.55;;;;;;;;;;2077916;28;20030;-79
2023/11/14 05:23:06;;;;;;;3.40;1.75;;;;;;;;;;2078414;28;20109;-79
2023/11/14 05:24:25;;;;;;;1.50;1.40;;;;;;;;;;2075796;28;20025;-79
2023/11/14 05:25:44;;;;;;;3.85;1.60;;;;;;;;;;2073896;28;20025;-79
2023/11/14 05:27:03;;;;;;;4.38;1.70;;;;;;;;;;2084625;28;20452;-79
2023/11/14 05:28:22;;;;;;;1.80;1.50;;;;;;;;;;2078726;28;20026;-79
2023/11/14 05:29:41;;;;;;;1.88;1.60;;;;;;;;;;2076908;28;20021;-78
2023/11/14 05:31:00;;;;;;;2.35;1.42;;;;;;;;;;2075830;28;20029;-79
2023/11/14 05:32:19;;;;;;;2.60;1.52;;;;;;;;;;2075365;28;20034;-78
2023/11/14 05:33:39;;;;;;;1.63;1.42;;;;;;;;;;2078530;28;20225;-79
2023/11/14 05:34:58;;;;;;;1.15;1.05;;;;;;;;;;2077551;28;20061;-79
2023/11/14 05:36:17;;;;;;;2.65;1.38;;;;;;;;;;2079365;28;20026;-80
2023/11/14 05:37:36;;;;;;;1.35;1.25;;;;;;;;;;2079569;28;20037;-80
2023/11/14 05:38:56;;;;;;;2.17;1.30;;;;;;;;;;2078719;28;20041;-80
2023/11/14 05:40:15;;;;;;;2.30;1.77;;;;;;;;;;2080924;28;20030;-81
2023/11/14 05:41:36;;;;;;;3.15;1.70;;;;;;;;;;2075647;28;20041;-79
2023/11/14 05:42:55;;;;;;;1.75;1.45;;;;;;;;;;2075907;28;20022;-78
2023/11/14 05:44:14;;;;;;;2.30;1.65;;;;;;;;;;2073693;28;20041;-78
2023/11/14 05:45:35;;;;;;;1.83;1.40;;;;;;;;;;2075362;28;20225;-78
2023/11/14 05:46:54;;;;;;;1.55;1.45;;;;;;;;;;2075880;28;20021;-78
2023/11/14 05:48:14;;;;;;;1.40;1.30;;;;;;;;;;2075631;28;20041;-79
2023/11/14 05:49:33;;;;;;;2.95;1.75;;;;;;;;;;2078635;28;20018;-79
2023/11/14 05:50:52;;;;;;;2.35;1.73;;;;;;;;;;2079262;28;20022;-79
2023/11/14 05:52:11;;;;;;;4.85;1.42;;;;;;;;;;2080419;28;20441;-78
2023/11/14 05:53:30;;;;;;;3.83;1.60;;;;;;;;;;2078386;28;20026;-79
2023/11/14 05:54:49;;;;;;;2.75;1.60;;;;;;;;;;2077007;28;20030;-78
2023/11/14 05:56:08;;;;;;;2.42;1.50;;;;;;;;;;2078452;28;20101;-79
2023/11/14 05:57:27;;;;;;;2.53;1.25;;;;;;;;;;2077212;28;20128;-78
2023/11/14 05:58:46;;;;;;;1.73;1.40;;;;;;;;;;2071572;28;20033;-78
2023/11/14 06:00:06;;;;;;;2.42;1.40;;;;;;;;;;2074232;28;20887;-79
2023/11/14 06:01:25;;;;;;;4.60;1.67;;;;;;;;;;2075757;28;20061;-78
2023/11/14 06:02:46;;;;;;;1.55;1.45;;;;;;;;;;2079013;28;20026;-77
2023/11/14 06:04:07;;;;;;;1.60;1.50;;;;;;;;;;2080163;28;20013;-77
2023/11/14 06:05:26;;;;;;;1.95;1.25;;;;;;;;;;2085787;28;20029;-77
2023/11/14 06:06:45;;;;;;;1.90;1.25;;;;;;;;;;2086714;28;20037;-76
2023/11/14 06:08:04;;;;;;;1.83;1.33;;;;;;;;;;2086726;28;20029;-78
2023/11/14 06:09:24;;;;;;;2.47;1.38;;;;;;;;;;2082633;28;20018;-75
2023/11/14 06:10:43;;;;;;;2.30;1.63;;;;;;;;;;2075537;28;20022;-78
2023/11/14 06:12:02;;;;;;;3.05;1.35;;;;;;;;;;2077790;28;20470;-77
2023/11/14 06:13:22;;;;;;;3.17;1.40;;;;;;;;;;2080152;28;20026;-77
2023/11/14 06:14:41;;;;;;;1.35;1.25;;;;;;;;;;2081193;28;20221;-78
2023/11/14 06:16:00;;;;;;;1.50;1.27;;;;;;;;;;2079571;28;20029;-76
2023/11/14 06:17:19;;;;;;;2.95;1.40;;;;;;;;;;2074658;28;20221;-77
2023/11/14 06:18:38;;;;;;;1.73;1.30;;;;;;;;;;2075824;28;20080;-77
2023/11/14 06:19:57;;;;;;;1.40;1.25;;;;;;;;;;2076613;28;20033;-79
2023/11/14 06:21:16;;;;;;;1.85;1.45;;;;;;;;;;2080109;28;20096;-77
2023/11/14 06:22:35;;;;;;;1.50;1.08;;;;;;;;;;2079823;28;20030;-77
2023/11/14 06:23:55;;;;;;;1.75;1.50;;;;;;;;;;2078389;28;20025;-77
2023/11/14 06:25:14;;;;;;;4.53;1.48;;;;;;;;;;2073301;28;20022;-78
2023/11/14 06:26:34;;;;;;;2.95;1.48;;;;;;;;;;2076907;28;20065;-77
2023/11/14 06:27:53;;;;;;;1.85;1.55;;;;;;;;;;2072159;28;20498;-77
2023/11/14 06:29:12;;;;;;;2.15;1.70;;;;;;;;;;2074223;28;20100;-77
2023/11/14 06:30:34;;;;;;;3.08;1.40;;;;;;;;;;2077097;28;20441;-77
2023/11/14 06:31:54;;;;;;;1.63;1.20;;;;;;;;;;2077861;28;20029;-76
2023/11/14 06:33:13;;;;;;;1.40;1.30;;;;;;;;;;2077034;28;20410;-76
2023/11/14 06:34:32;;;;;;;2.67;1.67;;;;;;;;;;2074812;28;20037;-78
2023/11/14 06:35:52;;;;;;;2.78;1.25;;;;;;;;;;2078558;28;20057;-78
2023/11/14 06:37:11;;;;;;;2.00;1.58;;;;;;;;;;2079060;28;20037;-77
2023/11/14 06:38:30;;;;;;;2.53;1.70;;;;;;;;;;2076071;28;20029;-78
2023/11/14 06:39:49;;;;;;;1.45;1.35;;;;;;;;;;2076721;28;20029;-78
2023/11/14 06:41:11;;;;;;;2.75;1.48;;;;;;;;;;2075989;28;20467;-77
2023/11/14 06:42:30;;;;;;;2.38;1.60;;;;;;;;;;2077895;28;20112;-78
2023/11/14 06:43:49;;;;;;;2.38;1.58;;;;;;;;;;2076951;28;20127;-77
2023/11/14 06:45:09;;;;;;;2.78;1.40;;;;;;;;;;2074642;28;20108;-77
2023/11/14 06:46:28;;;;;;;2.90;1.45;;;;;;;;;;2074556;28;20104;-77
2023/11/14 06:47:47;;;;;;;1.52;1.42;;;;;;;;;;2076093;28;20038;-77
2023/11/14 06:49:06;;;;;;;2.72;1.50;;;;;;;;;;2072019;28;20471;-77
2023/11/14 06:50:25;;;;;;;1.70;1.60;;;;;;;;;;2076222;28;20037;-77
2023/11/14 06:51:44;;;;;;;2.85;1.70;;;;;;;;;;2077205;28;20125;-77
2023/11/14 06:53:03;;;;;;;3.90;1.83;;;;;;;;;;2077165;28;20034;-76
2023/11/14 06:54:22;;;;;;;1.58;1.40;;;;;;;;;;2078199;28;20041;-79
2023/11/14 06:55:42;;;;;;;1.63;1.52;;;;;;;;;;2077139;28;20493;-79
2023/11/14 06:57:01;;;;;;;2.95;1.70;;;;;;;;;;2078639;28;20037;-78
2023/11/14 06:58:21;;;;;;;2.55;1.50;;;;;;;;;;2078000;28;20657;-79
2023/11/14 06:59:40;;;;;;;5.55;1.30;;;;;;;;;;2077997;28;20041;-78
2023/11/14 07:00:59;;;;;;;4.10;1.50;;;;;;;;;;2076444;28;20093;-80
2023/11/14 07:02:18;;;;;;;2.90;1.45;;;;;;;;;;2075832;28;20050;-79
2023/11/14 07:03:37;;;;;;;2.72;1.50;;;;;;;;;;2077027;28;20037;-80
2023/11/14 07:04:55;;;;;;;3.00;1.60;;;;;;;;;;2077172;28;20034;-79
2023/11/14 07:06:16;;;;;;;4.75;1.92;;;;;;;;;;2078600;28;20398;-78
2023/11/14 07:07:37;;;;;;;1.70;1.60;;;;;;;;;;2076901;28;20034;-79
2023/11/14 07:08:57;;;;;;;2.28;1.88;;;;;;;;;;2076378;28;20021;-79
2023/11/14 07:10:16;;;;;;;2.22;1.60;;;;;;;;;;2075410;28;20029;-79
2023/11/14 07:11:36;;;;;;;1.85;1.70;;;;;;;;;;2075279;28;20041;-78
2023/11/14 07:12:54;;;;;;;2.42;1.83;;;;;;;;;;2077731;28;20037;-79
2023/11/14 07:14:14;;;;;;;1.80;1.70;;;;;;;;;;2077953;28;20033;-77
2023/11/14 07:15:33;;;;;;;4.25;1.70;;;;;;;;;;2076837;28;20030;-79
2023/11/14 07:16:52;;;;;;;2.67;1.70;;;;;;;;;;2075771;28;20025;-79
2023/11/14 07:18:11;;;;;;;1.98;1.52;;;;;;;;;;2072473;28;20030;-78
2023/11/14 07:19:30;;;;;;;4.70;1.83;;;;;;;;;;2078327;28;20038;-78
2023/11/14 07:20:49;;;;;;;1.88;1.70;;;;;;;;;;2077280;28;20022;-78
2023/11/14 07:22:08;;;;;;;2.88;1.23;;;;;;;;;;2077394;28;20017;-79
2023/11/14 07:23:27;;;;;;;1.77;1.65;;;;;;;;;;2077691;28;20033;-79
2023/11/14 07:24:46;;;;;;;3.70;1.60;;;;;;;;;;2077751;28;20037;-79
2023/11/14 07:26:05;;;;;;;5.78;2.05;;;;;;;;;;2076014;28;20022;-78
2023/11/14 07:27:23;;;;;;;2.70;1.42;;;;;;;;;;2076859;28;20037;-79
2023/11/14 07:28:43;;;;;;;1.92;1.60;;;;;;;;;;2078160;28;20026;-79
2023/11/14 07:30:02;;;;;;;2.67;1.23;;;;;;;;;;2077039;28;20026;-79
2023/11/14 07:31:22;;;;;;;2.83;1.13;;;;;;;;;;2073026;28;20510;-79
2023/11/14 07:32:41;;;;;;;2.90;1.27;;;;;;;;;;2078016;28;20037;-79
2023/11/14 07:34:00;;;;;;;4.85;2.08;;;;;;;;;;2079129;28;20029;-79
2023/11/14 07:35:21;;;;;;;1.50;1.40;;;;;;;;;;2078793;28;20025;-79
2023/11/14 07:36:40;;;;;;;2.65;1.30;;;;;;;;;;2076645;28;20124;-77
2023/11/14 07:37:59;;;;;;;2.83;1.67;;;;;;;;;;2073585;28;20030;-79
2023/11/14 07:39:21;;;;;;;1.95;1.85;;;;;;;;;;2074831;28;20513;-78
2023/11/14 07:40:40;;;;;;;2.55;1.50;;;;;;;;;;2077923;28;20029;-79
2023/11/14 07:41:59;;;;;;;3.05;1.60;;;;;;;;;;2075510;28;20026;-78
2023/11/14 07:43:23;;;;;;;3.88;2.10;;;;;;;;;;2077626;28;20042;-78
2023/11/14 07:44:42;;;;;;;1.75;1.30;;;;;;;;;;2078137;28;20482;-78
2023/11/14 07:46:03;;;;;;;3.22;1.65;;;;;;;;;;2076820;28;20057;-77
2023/11/14 07:47:22;;;;;;;6.78;1.92;;;;;;;;;;2077601;28;20029;-78
2023/11/14 07:48:41;;;;;;;1.70;1.60;;;;;;;;;;2073795;28;20453;-78
2023/11/14 07:50:00;;;;;;;1.40;1.30;;;;;;;;;;2075544;28;20037;-77
2023/11/14 07:51:20;;;;;;;3.03;1.55;;;;;;;;;;2074526;28;20065;-78
2023/11/14 07:52:40;;;;;;;1.50;1.40;;;;;;;;;;2082460;28;20037;-78
2023/11/14 07:54:00;;;;;;;3.42;1.48;;;;;;;;;;2076559;28;20131;-77
2023/11/14 07:55:19;;;;;;;2.58;1.70;;;;;;;;;;2074698;28;20124;-79